sensor_id;sensor_type;location;lat;lon;timestamp;pressure;altitude;pressure_sealevel;temperature;humidity
18918;BME280;9591;52.742;13.650;2023-02-03T00:01:10;101674.16;;;0.62;100.00
18918;BME280;9591;52.742;13.650;2023-02-03T00:04:23;101657.72;;;0.64;100.00
18918;BME280;9591;52.742;13.650;2023-02-03T00:07:15;101655.75;;;0.56;100.00
18918;BME280;9591;52.742;13.650;2023-02-03T00:10:02;101637.63;;;0.60;100.00
18918;BME280;9591;52.742;13.650;2023-02-03T00:13:01;101632.69;;;0.73;100.00
18918;BME280;9591;52.742;13.650;2023-02-03T00:15:47;101626.47;;;0.68;100.00
18918;BME280;9591;52.742;13.650;2023-02-03T00:18:34;101615.56;;;0.87;100.00
18918;BME280;9591;52.742;13.650;2023-02-03T00:21:46;101604.59;;;1.02;100.00
18918;BME280;9591;52.742;13.650;2023-02-03T00:24:34;101585.16;;;0.86;100.00
18918;BME280;9591;52.742;13.650;2023-02-03T00:27:21;101581.56;;;0.81;100.00
18918;BME280;9591;52.742;13.650;2023-02-03T00:30:09;101578.34;;;0.94;100.00
18918;BME280;9591;52.742;13.650;2023-02-03T00:32:56;101549.66;;;0.95;100.00
18918;BME280;9591;52.742;13.650;2023-02-03T00:35:43;101554.31;;;1.10;100.00
18918;BME280;9591;52.742;13.650;2023-02-03T00:38:32;101542.19;;;1.12;100.00
18918;BME280;9591;52.742;13.650;2023-02-03T00:41:20;101523.22;;;1.22;100.00
18918;BME280;9591;52.742;13.650;2023-02-03T00:44:33;101520.06;;;1.40;100.00
18918;BME280;9591;52.742;13.650;2023-02-03T00:47:45;101522.06;;;1.55;100.00
18918;BME280;9591;52.742;13.650;2023-02-03T00:50:32;101536.78;;;1.50;100.00
18918;BME280;9591;52.742;13.650;2023-02-03T00:53:21;101539.41;;;1.50;100.00
18918;BME280;9591;52.742;13.650;2023-02-03T00:56:09;101543.13;;;1.64;100.00
18918;BME280;9591;52.742;13.650;2023-02-03T00:59:01;101543.19;;;1.67;100.00
18918;BME280;9591;52.742;13.650;2023-02-03T01:01:50;101540.69;;;1.76;100.00
18918;BME280;9591;52.742;13.650;2023-02-03T01:04:45;101525.84;;;1.72;100.00
18918;BME280;9591;52.742;13.650;2023-02-03T01:07:32;101519.03;;;1.83;100.00
18918;BME280;9591;52.742;13.650;2023-02-03T01:10:19;101519.84;;;1.79;100.00
18918;BME280;9591;52.742;13.650;2023-02-03T01:13:08;101503.91;;;1.61;100.00
18918;BME280;9591;52.742;13.650;2023-02-03T01:15:56;101514.47;;;1.69;100.00
18918;BME280;9591;52.742;13.650;2023-02-03T01:19:08;101509.19;;;1.66;100.00
18918;BME280;9591;52.742;13.650;2023-02-03T01:21:56;101499.53;;;1.60;100.00
18918;BME280;9591;52.742;13.650;2023-02-03T01:24:47;101489.09;;;1.60;100.00
18918;BME280;9591;52.742;13.650;2023-02-03T01:27:34;101482.09;;;1.59;100.00
18918;BME280;9591;52.742;13.650;2023-02-03T01:30:49;101481.22;;;1.58;100.00
18918;BME280;9591;52.742;13.650;2023-02-03T01:34:02;101471.88;;;1.73;100.00
18918;BME280;9591;52.742;13.650;2023-02-03T01:36:51;101473.47;;;1.63;100.00
18918;BME280;9591;52.742;13.650;2023-02-03T01:39:55;101480.41;;;1.62;100.00
18918;BME280;9591;52.742;13.650;2023-02-03T01:42:42;101476.22;;;1.72;100.00
18918;BME280;9591;52.742;13.650;2023-02-03T01:45:29;101479.69;;;1.71;100.00
18918;BME280;9591;52.742;13.650;2023-02-03T01:48:16;101456.34;;;1.83;100.00
18918;BME280;9591;52.742;13.650;2023-02-03T01:51:29;101445.81;;;1.79;100.00
18918;BME280;9591;52.742;13.650;2023-02-03T01:54:20;101436.28;;;1.82;100.00
18918;BME280;9591;52.742;13.650;2023-02-03T01:57:23;101430.16;;;1.79;100.00
18918;BME280;9591;52.742;13.650;2023-02-03T02:00:15;101429.31;;;1.81;100.00
18918;BME280;9591;52.742;13.650;2023-02-03T02:03:09;101424.13;;;1.84;100.00
18918;BME280;9591;52.742;13.650;2023-02-03T02:06:01;101418.09;;;1.88;100.00
18918;BME280;9591;52.742;13.650;2023-02-03T02:08:56;101419.72;;;1.80;100.00
18918;BME280;9591;52.742;13.650;2023-02-03T02:15:53;101388.28;;;1.74;100.00
18918;BME280;9591;52.742;13.650;2023-02-03T02:19:01;101388.28;;;1.71;100.00
18918;BME280;9591;52.742;13.650;2023-02-03T02:22:03;101375.13;;;1.63;100.00
18918;BME280;9591;52.742;13.650;2023-02-03T02:25:29;101354.34;;;1.73;100.00
18918;BME280;9591;52.742;13.650;2023-02-03T02:28:55;101347.28;;;1.66;100.00
18918;BME280;9591;52.742;13.650;2023-02-03T02:32:04;101334.16;;;1.61;100.00
18918;BME280;9591;52.742;13.650;2023-02-03T02:35:08;101317.63;;;1.60;100.00
18918;BME280;9591;52.742;13.650;2023-02-03T02:38:02;101306.19;;;1.52;100.00
18918;BME280;9591;52.742;13.650;2023-02-03T02:40:56;101300.06;;;1.50;100.00
18918;BME280;9591;52.742;13.650;2023-02-03T02:43:52;101291.31;;;1.47;100.00
18918;BME280;9591;52.742;13.650;2023-02-03T02:46:51;101279.06;;;1.41;100.00
18918;BME280;9591;52.742;13.650;2023-02-03T02:49:52;101283.38;;;1.38;100.00
18918;BME280;9591;52.742;13.650;2023-02-03T02:53:09;101277.31;;;1.40;100.00
18918;BME280;9591;52.742;13.650;2023-02-03T02:56:00;101264.25;;;1.40;100.00
18918;BME280;9591;52.742;13.650;2023-02-03T02:58:52;101260.88;;;1.49;100.00
18918;BME280;9591;52.742;13.650;2023-02-03T03:01:46;101250.38;;;1.43;100.00
18918;BME280;9591;52.742;13.650;2023-02-03T03:04:34;101246.06;;;1.46;100.00
18918;BME280;9591;52.742;13.650;2023-02-03T03:07:24;101249.50;;;1.44;100.00
18918;BME280;9591;52.742;13.650;2023-02-03T03:10:15;101103.19;;;0.60;100.00
18918;BME280;9591;52.742;13.650;2023-02-03T03:13:16;101237.22;;;1.35;100.00
18918;BME280;9591;52.742;13.650;2023-02-03T03:16:32;101219.75;;;1.31;100.00
18918;BME280;9591;52.742;13.650;2023-02-03T03:19:51;101208.47;;;1.34;100.00
18918;BME280;9591;52.742;13.650;2023-02-03T03:22:47;101183.06;;;1.19;100.00
18918;BME280;9591;52.742;13.650;2023-02-03T03:25:53;101170.00;;;1.17;100.00
18918;BME280;9591;52.742;13.650;2023-02-03T03:28:48;101164.13;;;1.34;100.00
18918;BME280;9591;52.742;13.650;2023-02-03T03:31:36;101155.41;;;1.33;100.00
18918;BME280;9591;52.742;13.650;2023-02-03T03:34:23;101159.72;;;1.29;100.00
18918;BME280;9591;52.742;13.650;2023-02-03T03:37:18;101149.38;;;1.37;100.00
18918;BME280;9591;52.742;13.650;2023-02-03T03:40:41;101131.03;;;1.33;100.00
18918;BME280;9591;52.742;13.650;2023-02-03T03:43:54;101125.84;;;1.36;100.00
18918;BME280;9591;52.742;13.650;2023-02-03T03:46:49;101124.97;;;1.35;100.00
18918;BME280;9591;52.742;13.650;2023-02-03T03:49:40;101123.31;;;1.42;100.00
18918;BME280;9591;52.742;13.650;2023-02-03T03:52:55;101102.47;;;1.45;100.00
18918;BME280;9591;52.742;13.650;2023-02-03T03:55:49;101099.03;;;1.47;100.00
18918;BME280;9591;52.742;13.650;2023-02-03T03:58:58;101118.25;;;1.55;100.00
18918;BME280;9591;52.742;13.650;2023-02-03T04:01:52;101105.16;;;1.52;100.00
18918;BME280;9591;52.742;13.650;2023-02-03T04:05:04;101092.13;;;1.54;100.00
18918;BME280;9591;52.742;13.650;2023-02-03T04:08:22;101095.66;;;1.57;100.00
18918;BME280;9591;52.742;13.650;2023-02-03T04:11:13;101081.72;;;1.57;100.00
18918;BME280;9591;52.742;13.650;2023-02-03T04:14:45;101058.22;;;1.58;100.00
18918;BME280;9591;52.742;13.650;2023-02-03T04:17:31;101053.00;;;1.58;100.00
18918;BME280;9591;52.742;13.650;2023-02-03T04:20:36;101039.13;;;1.62;100.00
18918;BME280;9591;52.742;13.650;2023-02-03T04:23:22;101033.09;;;1.68;100.00
18918;BME280;9591;52.742;13.650;2023-02-03T04:26:39;101020.91;;;1.70;100.00
18918;BME280;9591;52.742;13.650;2023-02-03T04:29:28;101023.53;;;1.72;100.00
18918;BME280;9591;52.742;13.650;2023-02-03T04:32:18;101024.41;;;1.75;100.00
18918;BME280;9591;52.742;13.650;2023-02-03T04:35:13;101021.84;;;1.81;100.00
18918;BME280;9591;52.742;13.650;2023-02-03T04:38:00;101017.56;;;1.89;100.00
18918;BME280;9591;52.742;13.650;2023-02-03T04:40:49;101008.00;;;1.93;100.00
18918;BME280;9591;52.742;13.650;2023-02-03T04:44:05;100999.34;;;2.00;100.00
18918;BME280;9591;52.742;13.650;2023-02-03T04:46:52;100984.53;;;2.01;100.00
18918;BME280;9591;52.742;13.650;2023-02-03T04:49:40;100979.34;;;2.05;100.00
18918;BME280;9591;52.742;13.650;2023-02-03T04:52:27;100952.38;;;2.09;100.00
18918;BME280;9591;52.742;13.650;2023-02-03T04:55:14;100956.78;;;2.18;100.00
18918;BME280;9591;52.742;13.650;2023-02-03T04:58:01;100966.44;;;2.29;100.00
18918;BME280;9591;52.742;13.650;2023-02-03T05:01:17;100943.81;;;2.38;100.00
18918;BME280;9591;52.742;13.650;2023-02-03T05:04:29;100963.91;;;2.46;100.00
18918;BME280;9591;52.742;13.650;2023-02-03T05:07:41;100939.50;;;2.50;100.00
18918;BME280;9591;52.742;13.650;2023-02-03T05:10:30;100935.16;;;2.54;100.00
18918;BME280;9591;52.742;13.650;2023-02-03T05:13:17;100943.91;;;2.67;100.00
18918;BME280;9591;52.742;13.650;2023-02-03T05:16:05;100943.03;;;2.54;100.00
18918;BME280;9591;52.742;13.650;2023-02-03T05:18:54;100928.22;;;2.71;100.00
18918;BME280;9591;52.742;13.650;2023-02-03T05:21:41;100930.84;;;2.77;100.00
18918;BME280;9591;52.742;13.650;2023-02-03T05:24:30;100916.94;;;2.87;100.00
18918;BME280;9591;52.742;13.650;2023-02-03T05:27:18;100904.72;;;2.85;100.00
18918;BME280;9591;52.742;13.650;2023-02-03T05:30:10;100909.13;;;3.12;100.00
18918;BME280;9591;52.742;13.650;2023-02-03T05:32:57;100895.16;;;3.08;100.00
18918;BME280;9591;52.742;13.650;2023-02-03T05:35:47;100869.88;;;3.28;100.00
18918;BME280;9591;52.742;13.650;2023-02-03T05:39:02;100864.59;;;3.47;100.00
18918;BME280;9591;52.742;13.650;2023-02-03T05:41:49;100860.22;;;3.56;100.00
18918;BME280;9591;52.742;13.650;2023-02-03T05:44:48;100845.34;;;3.68;100.00
18918;BME280;9591;52.742;13.650;2023-02-03T05:47:34;100833.09;;;3.77;100.00
18918;BME280;9591;52.742;13.650;2023-02-03T05:50:50;100836.56;;;3.85;100.00
18918;BME280;9591;52.742;13.650;2023-02-03T05:53:37;100835.66;;;3.97;100.00
18918;BME280;9591;52.742;13.650;2023-02-03T05:56:24;100819.03;;;4.09;100.00
18918;BME280;9591;52.742;13.650;2023-02-03T05:59:13;100793.66;;;4.15;100.00
18918;BME280;9591;52.742;13.650;2023-02-03T06:02:02;100790.13;;;4.21;100.00
18918;BME280;9591;52.742;13.650;2023-02-03T06:04:49;100790.97;;;4.29;100.00
18918;BME280;9591;52.742;13.650;2023-02-03T06:07:39;100791.72;;;4.45;100.00
18918;BME280;9591;52.742;13.650;2023-02-03T06:10:26;100788.16;;;4.55;100.00
18918;BME280;9591;52.742;13.650;2023-02-03T06:13:14;100778.50;;;4.60;100.00
18918;BME280;9591;52.742;13.650;2023-02-03T06:16:05;100774.03;;;4.74;100.00
18918;BME280;9591;52.742;13.650;2023-02-03T06:18:53;100761.78;;;4.75;100.00
18918;BME280;9591;52.742;13.650;2023-02-03T06:21:46;100753.81;;;4.85;100.00
18918;BME280;9591;52.742;13.650;2023-02-03T06:24:36;100752.91;;;4.88;100.00
18918;BME280;9591;52.742;13.650;2023-02-03T06:27:22;100756.31;;;4.99;100.00
18918;BME280;9591;52.742;13.650;2023-02-03T06:30:11;100757.03;;;5.16;100.00
18918;BME280;9591;52.742;13.650;2023-02-03T06:33:00;100750.00;;;5.20;100.00
18918;BME280;9591;52.742;13.650;2023-02-03T06:35:47;100751.66;;;5.27;100.00
18918;BME280;9591;52.742;13.650;2023-02-03T06:38:36;100745.47;;;5.31;100.00
18918;BME280;9591;52.742;13.650;2023-02-03T06:41:27;100737.56;;;5.36;100.00
18918;BME280;9591;52.742;13.650;2023-02-03T06:44:18;100731.41;;;5.38;100.00
18918;BME280;9591;52.742;13.650;2023-02-03T06:47:05;100727.00;;;5.39;100.00
18918;BME280;9591;52.742;13.650;2023-02-03T06:50:00;100709.28;;;5.56;100.00
18918;BME280;9591;52.742;13.650;2023-02-03T06:52:48;100704.00;;;5.59;100.00
18918;BME280;9591;52.742;13.650;2023-02-03T06:56:00;100703.06;;;5.65;100.00
18918;BME280;9591;52.742;13.650;2023-02-03T06:58:52;100697.72;;;5.71;100.00
18918;BME280;9591;52.742;13.650;2023-02-03T07:01:39;100691.59;;;5.70;100.00
18918;BME280;9591;52.742;13.650;2023-02-03T07:04:26;100696.69;;;5.82;100.00
18918;BME280;9591;52.742;13.650;2023-02-03T07:07:18;100685.25;;;5.88;100.00
18918;BME280;9591;52.742;13.650;2023-02-03T07:10:08;100676.44;;;5.92;100.00
18918;BME280;9591;52.742;13.650;2023-02-03T07:13:22;100673.69;;;6.01;100.00
18918;BME280;9591;52.742;13.650;2023-02-03T07:16:10;100661.28;;;6.09;100.00
18918;BME280;9591;52.742;13.650;2023-02-03T07:18:59;100663.91;;;6.09;100.00
18918;BME280;9591;52.742;13.650;2023-02-03T07:22:13;100649.00;;;6.10;100.00
18918;BME280;9591;52.742;13.650;2023-02-03T07:25:07;100643.53;;;6.23;100.00
18918;BME280;9591;52.742;13.650;2023-02-03T07:27:53;100640.03;;;6.23;100.00
18918;BME280;9591;52.742;13.650;2023-02-03T07:30:42;100621.50;;;6.29;100.00
18918;BME280;9591;52.742;13.650;2023-02-03T07:33:59;100618.81;;;6.34;100.00
18918;BME280;9591;52.742;13.650;2023-02-03T07:36:58;100622.25;;;6.37;100.00
18918;BME280;9591;52.742;13.650;2023-02-03T07:39:47;100605.44;;;6.46;100.00
18918;BME280;9591;52.742;13.650;2023-02-03T07:42:46;100597.63;;;6.41;100.00
18918;BME280;9591;52.742;13.650;2023-02-03T07:49:21;100601.91;;;6.48;100.00
18918;BME280;9591;52.742;13.650;2023-02-03T07:52:08;100583.50;;;6.47;100.00
18918;BME280;9591;52.742;13.650;2023-02-03T07:54:55;100593.13;;;6.49;100.00
18918;BME280;9591;52.742;13.650;2023-02-03T07:57:44;100586.78;;;6.60;100.00
18918;BME280;9591;52.742;13.650;2023-02-03T08:00:31;100590.19;;;6.66;100.00
18918;BME280;9591;52.742;13.650;2023-02-03T08:03:19;100583.16;;;6.67;100.00
18918;BME280;9591;52.742;13.650;2023-02-03T08:09:45;100556.84;;;6.67;100.00
18918;BME280;9591;52.742;13.650;2023-02-03T08:12:36;100550.66;;;6.69;100.00
18918;BME280;9591;52.742;13.650;2023-02-03T08:15:28;100547.97;;;6.71;100.00
18918;BME280;9591;52.742;13.650;2023-02-03T08:18:18;100532.13;;;6.74;100.00
18918;BME280;9591;52.742;13.650;2023-02-03T08:21:05;100515.44;;;6.75;100.00
18918;BME280;9591;52.742;13.650;2023-02-03T08:24:19;100514.53;;;6.76;100.00
18918;BME280;9591;52.742;13.650;2023-02-03T08:27:40;100510.94;;;6.80;100.00
18918;BME280;9591;52.742;13.650;2023-02-03T08:30:27;100513.56;;;6.81;100.00
18918;BME280;9591;52.742;13.650;2023-02-03T08:33:41;100510.09;;;6.79;100.00
18918;BME280;9591;52.742;13.650;2023-02-03T08:36:31;100486.38;;;6.81;100.00
18918;BME280;9591;52.742;13.650;2023-02-03T08:39:20;100431.66;;;6.53;100.00
18918;BME280;9591;52.742;13.650;2023-02-03T08:42:09;100487.94;;;6.89;100.00
18918;BME280;9591;52.742;13.650;2023-02-03T08:45:06;100472.22;;;6.86;100.00
18918;BME280;9591;52.742;13.650;2023-02-03T08:47:53;100470.38;;;6.90;100.00
18918;BME280;9591;52.742;13.650;2023-02-03T08:50:40;100480.84;;;6.93;100.00
18918;BME280;9591;52.742;13.650;2023-02-03T08:53:50;100456.38;;;6.88;100.00
18918;BME280;9591;52.742;13.650;2023-02-03T08:57:02;100442.13;;;6.97;100.00
18918;BME280;9591;52.742;13.650;2023-02-03T08:59:50;100446.56;;;6.95;100.00
18918;BME280;9591;52.742;13.650;2023-02-03T09:02:38;100440.28;;;7.00;100.00
18918;BME280;9591;52.742;13.650;2023-02-03T09:05:29;100441.28;;;6.95;100.00
18918;BME280;9591;52.742;13.650;2023-02-03T09:08:20;100452.50;;;7.04;100.00
18918;BME280;9591;52.742;13.650;2023-02-03T09:11:32;100430.66;;;6.99;100.00
18918;BME280;9591;52.742;13.650;2023-02-03T09:14:25;100431.56;;;6.98;100.00
18918;BME280;9591;52.742;13.650;2023-02-03T09:17:39;100428.97;;;6.97;100.00
18918;BME280;9591;52.742;13.650;2023-02-03T09:20:25;100422.63;;;7.05;100.00
18918;BME280;9591;52.742;13.650;2023-02-03T09:23:20;100401.41;;;7.11;100.00
18918;BME280;9591;52.742;13.650;2023-02-03T09:26:33;100402.31;;;7.10;100.00
18918;BME280;9591;52.742;13.650;2023-02-03T09:29:22;100394.38;;;7.12;100.00
18918;BME280;9591;52.742;13.650;2023-02-03T09:33:04;100402.22;;;7.15;100.00
18918;BME280;9591;52.742;13.650;2023-02-03T09:35:59;100391.59;;;7.18;100.00
18918;BME280;9591;52.742;13.650;2023-02-03T09:38:46;100395.19;;;7.15;100.00
18918;BME280;9591;52.742;13.650;2023-02-03T09:41:45;100391.63;;;7.16;100.00
18918;BME280;9591;52.742;13.650;2023-02-03T09:44:44;100369.47;;;7.25;100.00
18918;BME280;9591;52.742;13.650;2023-02-03T09:48:21;100382.72;;;7.22;100.00
18918;BME280;9591;52.742;13.650;2023-02-03T09:51:22;100353.53;;;7.31;100.00
18918;BME280;9591;52.742;13.650;2023-02-03T09:54:38;100359.66;;;7.32;100.00
18918;BME280;9591;52.742;13.650;2023-02-03T09:57:41;100345.47;;;7.37;100.00
18918;BME280;9591;52.742;13.650;2023-02-03T10:00:43;100363.88;;;7.39;100.00
18918;BME280;9591;52.742;13.650;2023-02-03T10:03:37;100346.25;;;7.41;100.00
18918;BME280;9591;52.742;13.650;2023-02-03T10:06:30;100347.97;;;7.43;100.00
18918;BME280;9591;52.742;13.650;2023-02-03T10:09:37;100341.84;;;7.41;100.00
18918;BME280;9591;52.742;13.650;2023-02-03T10:16:41;100348.03;;;7.40;100.00
18918;BME280;9591;52.742;13.650;2023-02-03T10:20:15;100362.03;;;7.42;100.00
18918;BME280;9591;52.742;13.650;2023-02-03T10:23:33;100369.00;;;7.45;100.00
18918;BME280;9591;52.742;13.650;2023-02-03T10:26:28;100381.19;;;7.49;100.00
18918;BME280;9591;52.742;13.650;2023-02-03T10:29:25;100395.97;;;7.54;100.00
18918;BME280;9591;52.742;13.650;2023-02-03T10:32:17;100386.22;;;7.58;100.00
18918;BME280;9591;52.742;13.650;2023-02-03T10:35:35;100411.72;;;7.57;100.00
18918;BME280;9591;52.742;13.650;2023-02-03T10:38:40;100407.47;;;7.52;100.00
18918;BME280;9591;52.742;13.650;2023-02-03T10:41:32;100419.88;;;7.47;100.00
18918;BME280;9591;52.742;13.650;2023-02-03T10:44:18;100401.84;;;7.30;100.00
18918;BME280;9591;52.742;13.650;2023-02-03T10:47:32;100429.97;;;7.30;100.00
18918;BME280;9591;52.742;13.650;2023-02-03T10:50:51;100424.75;;;7.27;100.00
18918;BME280;9591;52.742;13.650;2023-02-03T10:54:24;100399.41;;;7.22;100.00
18918;BME280;9591;52.742;13.650;2023-02-03T10:57:15;100411.66;;;7.23;100.00
18918;BME280;9591;52.742;13.650;2023-02-03T11:03:24;100400.53;;;7.11;100.00
18918;BME280;9591;52.742;13.650;2023-02-03T11:06:17;100407.59;;;7.10;100.00
18918;BME280;9591;52.742;13.650;2023-02-03T11:09:30;100415.47;;;7.10;100.00
18918;BME280;9591;52.742;13.650;2023-02-03T11:12:20;100398.91;;;7.05;100.00
18918;BME280;9591;52.742;13.650;2023-02-03T11:15:13;100332.44;;;6.58;100.00
18918;BME280;9591;52.742;13.650;2023-02-03T11:18:03;100399.13;;;6.96;100.00
18918;BME280;9591;52.742;13.650;2023-02-03T11:20:49;100399.03;;;7.01;100.00
18918;BME280;9591;52.742;13.650;2023-02-03T11:23:44;100403.50;;;6.97;100.00
18918;BME280;9591;52.742;13.650;2023-02-03T11:26:41;100390.94;;;7.08;100.00
18918;BME280;9591;52.742;13.650;2023-02-03T11:29:35;100388.28;;;7.10;100.00
18918;BME280;9591;52.742;13.650;2023-02-03T11:33:26;100404.88;;;7.13;100.00
18918;BME280;9591;52.742;13.650;2023-02-03T11:36:42;100404.72;;;7.19;100.00
18918;BME280;9591;52.742;13.650;2023-02-03T11:39:32;100403.84;;;7.20;100.00
18918;BME280;9591;52.742;13.650;2023-02-03T11:42:37;100425.00;;;7.16;100.00
18918;BME280;9591;52.742;13.650;2023-02-03T11:46:15;100424.94;;;7.19;100.00
18918;BME280;9591;52.742;13.650;2023-02-03T11:49:30;100415.19;;;7.22;100.00
18918;BME280;9591;52.742;13.650;2023-02-03T11:53:23;100423.81;;;7.29;100.00
18918;BME280;9591;52.742;13.650;2023-02-03T11:57:15;100427.25;;;7.33;100.00
18918;BME280;9591;52.742;13.650;2023-02-03T12:00:35;100435.00;;;7.39;100.00
18918;BME280;9591;52.742;13.650;2023-02-03T12:07:40;100434.00;;;7.44;100.00
18918;BME280;9591;52.742;13.650;2023-02-03T12:14:51;100425.44;;;7.35;100.00
18918;BME280;9591;52.742;13.650;2023-02-03T12:18:07;100418.19;;;7.44;100.00
18918;BME280;9591;52.742;13.650;2023-02-03T12:25:02;100433.31;;;7.72;100.00
18918;BME280;9591;52.742;13.650;2023-02-03T12:28:05;100440.19;;;7.79;100.00
18918;BME280;9591;52.742;13.650;2023-02-03T12:31:48;100438.47;;;7.76;100.00
18918;BME280;9591;52.742;13.650;2023-02-03T12:35:19;100457.28;;;7.63;100.00
18918;BME280;9591;52.742;13.650;2023-02-03T12:38:30;100484.19;;;6.58;100.00
18918;BME280;9591;52.742;13.650;2023-02-03T12:41:43;100501.19;;;5.94;100.00
18918;BME280;9591;52.742;13.650;2023-02-03T12:44:51;100504.31;;;5.60;100.00
18918;BME280;9591;52.742;13.650;2023-02-03T12:48:10;100514.25;;;5.40;100.00
18918;BME280;9591;52.742;13.650;2023-02-03T12:51:08;100504.94;;;5.19;100.00
18918;BME280;9591;52.742;13.650;2023-02-03T12:54:01;100513.75;;;5.15;100.00
18918;BME280;9591;52.742;13.650;2023-02-03T12:56:56;100513.88;;;5.06;100.00
18918;BME280;9591;52.742;13.650;2023-02-03T13:03:26;100520.06;;;5.01;100.00
18918;BME280;9591;52.742;13.650;2023-02-03T13:06:19;100525.16;;;5.13;100.00
18918;BME280;9591;52.742;13.650;2023-02-03T13:12:43;100510.69;;;5.43;100.00
18918;BME280;9591;52.742;13.650;2023-02-03T13:15:46;100521.91;;;5.54;100.00
18918;BME280;9591;52.742;13.650;2023-02-03T13:19:17;100506.97;;;5.57;100.00
18918;BME280;9591;52.742;13.650;2023-02-03T13:22:14;100512.16;;;5.64;100.00
18918;BME280;9591;52.742;13.650;2023-02-03T13:25:26;100508.47;;;5.74;100.00
18918;BME280;9591;52.742;13.650;2023-02-03T13:28:41;100506.75;;;5.73;100.00
18918;BME280;9591;52.742;13.650;2023-02-03T13:36:14;100505.06;;;5.69;100.00
18918;BME280;9591;52.742;13.650;2023-02-03T13:39:57;100503.31;;;5.69;100.00
18918;BME280;9591;52.742;13.650;2023-02-03T13:43:12;100517.31;;;5.68;100.00
18918;BME280;9591;52.742;13.650;2023-02-03T13:46:25;100513.88;;;5.65;100.00
18918;BME280;9591;52.742;13.650;2023-02-03T13:49:20;100457.31;;;5.41;100.00
18918;BME280;9591;52.742;13.650;2023-02-03T13:52:28;100511.19;;;5.69;100.00
18918;BME280;9591;52.742;13.650;2023-02-03T13:55:32;100506.69;;;5.76;100.00
18918;BME280;9591;52.742;13.650;2023-02-03T13:58:22;100505.69;;;5.84;100.00
18918;BME280;9591;52.742;13.650;2023-02-03T14:01:31;100490.72;;;5.88;100.00
18918;BME280;9591;52.742;13.650;2023-02-03T14:07:42;100519.28;;;6.09;100.00
18918;BME280;9591;52.742;13.650;2023-02-03T14:10:29;100527.09;;;6.14;100.00
18918;BME280;9591;52.742;13.650;2023-02-03T14:13:19;100530.53;;;6.17;100.00
18918;BME280;9591;52.742;13.650;2023-02-03T14:16:13;100529.53;;;6.24;100.00
18918;BME280;9591;52.742;13.650;2023-02-03T14:19:08;100530.28;;;6.33;100.00
18918;BME280;9591;52.742;13.650;2023-02-03T14:21:57;100527.66;;;6.31;100.00
18918;BME280;9591;52.742;13.650;2023-02-03T14:24:47;100538.00;;;6.42;100.00
18918;BME280;9591;52.742;13.650;2023-02-03T14:27:35;100537.06;;;6.46;100.00
18918;BME280;9591;52.742;13.650;2023-02-03T14:30:22;100536.06;;;6.51;100.00
18918;BME280;9591;52.742;13.650;2023-02-03T14:33:08;100532.75;;;6.40;100.00
18918;BME280;9591;52.742;13.650;2023-02-03T14:35:55;100522.25;;;6.40;100.00
18918;BME280;9591;52.742;13.650;2023-02-03T14:38:42;100530.91;;;6.45;100.00
18918;BME280;9591;52.742;13.650;2023-02-03T14:41:42;100536.09;;;6.50;100.00
18918;BME280;9591;52.742;13.650;2023-02-03T14:44:39;100536.28;;;6.39;100.00
18918;BME280;9591;52.742;13.650;2023-02-03T14:47:41;100534.41;;;6.46;100.00
18918;BME280;9591;52.742;13.650;2023-02-03T14:50:43;100551.97;;;6.45;100.00
18918;BME280;9591;52.742;13.650;2023-02-03T14:53:48;100535.53;;;6.33;100.00
18918;BME280;9591;52.742;13.650;2023-02-03T14:56:45;100546.81;;;6.39;100.00
18918;BME280;9591;52.742;13.650;2023-02-03T14:59:56;100573.06;;;6.42;100.00
18918;BME280;9591;52.742;13.650;2023-02-03T15:06:04;100585.28;;;6.46;100.00
18918;BME280;9591;52.742;13.650;2023-02-03T15:08:52;100582.50;;;6.54;100.00
18918;BME280;9591;52.742;13.650;2023-02-03T15:11:45;100587.75;;;6.55;100.00
18918;BME280;9591;52.742;13.650;2023-02-03T15:14:32;100573.66;;;6.58;100.00
18918;BME280;9591;52.742;13.650;2023-02-03T15:17:22;100588.59;;;6.57;100.00
18918;BME280;9591;52.742;13.650;2023-02-03T15:20:25;100582.47;;;6.55;100.00
18918;BME280;9591;52.742;13.650;2023-02-03T15:23:20;100570.22;;;6.54;100.00
18918;BME280;9591;52.742;13.650;2023-02-03T15:26:12;100584.25;;;6.55;100.00
18918;BME280;9591;52.742;13.650;2023-02-03T15:29:01;100581.63;;;6.53;100.00
18918;BME280;9591;52.742;13.650;2023-02-03T15:31:54;100577.28;;;6.52;100.00
18918;BME280;9591;52.742;13.650;2023-02-03T15:34:44;100595.69;;;6.52;100.00
18918;BME280;9591;52.742;13.650;2023-02-03T15:37:36;100582.66;;;6.45;100.00
18918;BME280;9591;52.742;13.650;2023-02-03T15:40:31;100599.34;;;6.44;100.00
18918;BME280;9591;52.742;13.650;2023-02-03T15:43:25;100601.06;;;6.46;100.00
18918;BME280;9591;52.742;13.650;2023-02-03T15:46:17;100576.53;;;6.44;100.00
18918;BME280;9591;52.742;13.650;2023-02-03T15:49:12;100591.47;;;6.42;100.00
18918;BME280;9591;52.742;13.650;2023-02-03T15:52:06;100602.03;;;6.41;100.00
18918;BME280;9591;52.742;13.650;2023-02-03T15:55:02;100605.53;;;6.41;100.00
18918;BME280;9591;52.742;13.650;2023-02-03T15:57:51;100614.31;;;6.40;100.00
18918;BME280;9591;52.742;13.650;2023-02-03T16:00:39;100582.31;;;6.14;100.00
18918;BME280;9591;52.742;13.650;2023-02-03T16:03:37;100615.34;;;6.32;100.00
18918;BME280;9591;52.742;13.650;2023-02-03T16:06:27;100614.53;;;6.27;100.00
18918;BME280;9591;52.742;13.650;2023-02-03T16:09:29;100625.94;;;6.27;100.00
18918;BME280;9591;52.742;13.650;2023-02-03T16:12:17;100632.97;;;6.25;100.00
18918;BME280;9591;52.742;13.650;2023-02-03T16:15:20;100625.97;;;6.24;100.00
18918;BME280;9591;52.742;13.650;2023-02-03T16:18:15;100638.25;;;6.25;100.00
18918;BME280;9591;52.742;13.650;2023-02-03T16:21:04;100626.22;;;6.09;100.00